createdAt,value
2022-10-05T14:49:24.867Z,98498.97
2022-10-05T14:51:53.410Z,98498.22
2022-10-05T14:54:28.835Z,98503.56
2022-10-05T14:57:06.893Z,98503.28
2022-10-05T14:59:43.592Z,98497.78
2022-10-05T15:02:19.981Z,98492.75
2022-10-05T15:05:03.602Z,98489.91
2022-10-05T15:07:38.895Z,98484.72
2022-10-05T15:10:14.569Z,98491.84
2022-10-05T15:12:45.788Z,98491.84
2022-10-05T15:15:33.042Z,98491.84
2022-10-05T15:18:16.037Z,98489.56
2022-10-05T15:20:54.684Z,98494.97
2022-10-05T15:23:27.312Z,98490.09
2022-10-05T15:26:17.599Z,98493.31
2022-10-05T15:29:08.935Z,98496.06
2022-10-05T15:31:49.123Z,98489.75
2022-10-05T15:34:26.969Z,98492.22
2022-10-05T15:37:08.274Z,98484.97
2022-10-05T15:39:49.338Z,98487.38
2022-10-05T15:42:41.790Z,98492.53
2022-10-05T15:45:20.648Z,98485.75
2022-10-05T15:48:00.303Z,98489.94
2022-10-05T15:50:32.350Z,98503.06
2022-10-05T15:53:02.643Z,98498.03
2022-10-05T15:55:49.419Z,98501.28
2022-10-05T15:58:31.193Z,98506.50
2022-10-05T17:02:09.087Z,98539.25
2022-10-05T17:04:57.065Z,98539.25
2022-10-05T17:07:37.199Z,98534.91
2022-10-05T17:10:28.613Z,98530.00
2022-10-05T17:13:16.849Z,98535.00
2022-10-05T17:16:15.006Z,98532.09
2022-10-05T17:18:53.673Z,98535.28
2022-10-05T17:21:34.824Z,98541.75
2022-10-05T17:24:32.502Z,98536.56
2022-10-05T17:27:23.854Z,98536.97
2022-10-05T17:29:55.818Z,98538.19
2022-10-05T17:32:22.484Z,98535.50
2022-10-05T17:35:09.343Z,98510.81
2022-10-05T17:37:42.034Z,98537.63
2022-10-05T17:40:38.345Z,98551.50
2022-10-05T17:43:17.508Z,98548.03
2022-10-05T17:45:44.015Z,98543.56
2022-10-05T17:48:12.570Z,98540.31
2022-10-05T17:50:59.736Z,98543.69
2022-10-05T17:54:03.112Z,98548.28
2022-10-05T17:56:31.782Z,98549.72
2022-10-05T17:58:59.808Z,98552.91
2022-10-05T18:01:38.339Z,98549.72
2022-10-05T18:04:11.187Z,98550.44
2022-10-05T18:07:00.846Z,98553.75
2022-10-05T18:09:27.986Z,98559.50
2022-10-05T18:12:16.782Z,98559.25
2022-10-05T18:15:03.298Z,98556.69
2022-10-05T18:17:48.089Z,98558.56
2022-10-05T18:20:31.543Z,98564.06
2022-10-05T18:23:01.333Z,98555.38
2022-10-05T18:25:43.220Z,98555.03
2022-10-05T18:28:18.783Z,98548.84
2022-10-05T18:30:53.179Z,98550.47
2022-10-05T18:33:34.796Z,98555.03
2022-10-05T18:36:37.691Z,98549.31
2022-10-05T18:39:44.500Z,98559.72
2022-10-05T18:42:41.569Z,98563.72
2022-10-05T18:45:24.295Z,98563.97
2022-10-05T18:47:59.952Z,98563.13
2022-10-05T18:51:26.196Z,98569.91
2022-10-05T18:54:10.632Z,98557.25
2022-10-05T18:56:44.153Z,98551.16
2022-10-05T18:59:19.503Z,98557.25
2022-10-05T19:02:07.717Z,98560.88
2022-10-05T19:04:58.439Z,98554.78
2022-10-05T19:07:41.399Z,98549.38
2022-10-05T19:10:17.536Z,98550.88
2022-10-05T19:12:50.550Z,98562.13
2022-10-05T19:16:02.931Z,98559.44
2022-10-05T19:19:00.195Z,98567.50
2022-10-05T19:22:14.201Z,98568.81
2022-10-05T19:24:52.801Z,98573.81
2022-10-05T19:27:55.447Z,98574.66
2022-10-05T19:30:33.696Z,98573.81
2022-10-05T19:33:06.300Z,98580.03
2022-10-05T19:35:58.382Z,98589.38
2022-10-05T19:38:50.774Z,98579.53
2022-10-05T19:41:31.418Z,98582.44
2022-10-05T19:44:06.064Z,98583.72
2022-10-05T19:46:55.912Z,98580.91
2022-10-05T19:49:37.387Z,98590.03
2022-10-05T19:52:11.070Z,98590.94
2022-10-05T19:54:37.854Z,98598.41
2022-10-05T19:57:17.090Z,98593.28
2022-10-05T19:59:48.382Z,98592.44
2022-10-05T20:02:17.005Z,98593.72
2022-10-05T20:04:49.689Z,98593.34
2022-10-05T20:07:23.353Z,98591.34
2022-10-05T20:10:37.685Z,98597.63
2022-10-05T20:13:04.894Z,98588.97
2022-10-05T20:15:53.051Z,98593.53
2022-10-05T20:19:03.639Z,98596.06
2022-10-05T20:21:54.227Z,98602.13
2022-10-05T20:24:27.536Z,98592.63
2022-10-05T20:27:18.016Z,98587.56
2022-10-05T20:29:45.030Z,98589.06
2022-10-05T20:32:14.171Z,98594.44
2022-10-05T20:34:48.154Z,98590.72
2022-10-05T20:37:19.119Z,98593.41
2022-10-05T20:39:47.285Z,98589.88
2022-10-05T20:42:14.637Z,98589.28
2022-10-05T20:44:41.383Z,98593.03
2022-10-05T20:47:10.762Z,98583.06
2022-10-05T20:49:41.431Z,98590.13
2022-10-05T20:52:10.214Z,98585.63
2022-10-05T20:54:39.030Z,98581.38
2022-10-05T20:57:06.839Z,98579.13
2022-10-05T20:59:34.661Z,98594.44
2022-10-05T21:02:01.787Z,98586.25
2022-10-05T21:04:42.903Z,98593.69
2022-10-05T21:07:10.187Z,98581.75
2022-10-05T21:09:38.710Z,98584.25
2022-10-05T21:12:05.503Z,98583.69
2022-10-05T21:14:34.382Z,98586.38
2022-10-05T21:17:02.191Z,98585.75
2022-10-05T21:19:29.558Z,98581.88
2022-10-05T21:21:59.825Z,98591.81
2022-10-05T21:24:26.544Z,98586.06
2022-10-05T21:26:56.782Z,98579.47
2022-10-05T21:29:23.452Z,98578.66
2022-10-05T21:31:50.164Z,98581.13
2022-10-05T21:34:16.971Z,98576.56
2022-10-05T21:36:43.804Z,98573.06
2022-10-05T21:39:10.369Z,98577.84
2022-10-05T21:41:36.976Z,98565.72
2022-10-05T21:44:04.204Z,98577.09
2022-10-05T21:46:31.760Z,98569.84
2022-10-05T21:48:58.351Z,98568.34
2022-10-05T21:51:26.587Z,98568.13
2022-10-05T21:54:02.937Z,98568.13
2022-10-05T21:56:36.125Z,98570.38
2022-10-05T21:59:06.618Z,98570.53
2022-10-05T22:01:35.979Z,98566.38
2022-10-05T22:04:06.613Z,98564.88
2022-10-05T22:06:35.142Z,98562.75
2022-10-05T22:09:02.682Z,98563.97
2022-10-05T22:11:29.448Z,98561.88
2022-10-05T22:14:02.228Z,98564.34
2022-10-05T22:16:34.147Z,98559.34
2022-10-05T22:19:07.264Z,98563.25
2022-10-05T22:21:38.016Z,98561.13
2022-10-05T22:24:05.035Z,98564.19
2022-10-05T22:26:31.893Z,98556.50
2022-10-05T22:28:58.733Z,98563.50
2022-10-05T22:31:25.540Z,98560.81
2022-10-05T22:33:52.379Z,98555.69
2022-10-05T22:36:19.408Z,98552.16
2022-10-05T22:38:47.633Z,98555.06
2022-10-05T22:41:18.471Z,98551.34
2022-10-05T22:43:50.068Z,98545.59
2022-10-05T22:46:17.525Z,98543.38
2022-10-05T22:48:44.573Z,98542.53
2022-10-05T22:51:11.433Z,98543.56
2022-10-05T22:53:38.151Z,98537.38
2022-10-05T22:56:10.094Z,98534.09
2022-10-05T22:58:36.897Z,98533.50
2022-10-05T23:01:05.860Z,98527.53
2022-10-05T23:03:33.959Z,98531.72
2022-10-05T23:06:03.704Z,98534.19
2022-10-05T23:08:35.607Z,98538.13
2022-10-05T23:11:14.748Z,98536.72
2022-10-05T23:13:41.991Z,98537.38
2022-10-05T23:16:20.249Z,98538.44
2022-10-05T23:18:51.876Z,98534.31
2022-10-05T23:21:21.649Z,98534.56
2022-10-05T23:23:51.044Z,98532.69
2022-10-05T23:26:23.514Z,98535.97
2022-10-05T23:28:50.322Z,98534.09
2022-10-05T23:31:20.321Z,98532.91
2022-10-05T23:33:47.104Z,98532.31
2022-10-05T23:36:18.473Z,98527.75
2022-10-05T23:38:45.720Z,98536.41
2022-10-05T23:41:13.579Z,98533.94
2022-10-05T23:43:40.537Z,98528.56
2022-10-05T23:46:08.470Z,98529.41
2022-10-05T23:48:38.120Z,98525.75
2022-10-05T23:51:07.106Z,98526.56
2022-10-05T23:53:34.130Z,98532.53
2022-10-05T23:56:01.025Z,98540.38
2022-10-05T23:58:28.035Z,98535.44
